Time;durP1;ratioP1;P1;durP2;ratioP2;P2;SDS_P1;SDS_P2;PMS_P1;PMS_P2;Temp;Humidity;BMP_temperature;BMP_pressure;BME280_temperature;BME280_humidity;BME280_pressure;Samples;Min_cycle;Max_cycle;Signal;HPM_P1;HPM_P2
2022/10/31 00:02:01;;;;;;;17.85;11.27;;;;;;;;;;5328407;27;20057;-73
2022/10/31 00:04:26;;;;;;;;;;;;;;;;;;5326475;27;20001;-73
2022/10/31 00:06:51;;;;;;;13.55;9.15;;;;;;;;;;5325557;27;19932;-73
2022/10/31 00:09:16;;;;;;;11.95;8.27;;;;;;;;;;5329220;27;20001;-73
2022/10/31 00:11:41;;;;;;;12.95;7.93;;;;;;;;;;5327884;27;20000;-73
2022/10/31 00:14:07;;;;;;;;;;;;;;;;;;5328453;27;20015;-73
2022/10/31 00:16:32;;;;;;;14.64;7.72;;;;;;;;;;5328713;27;19927;-73
2022/10/31 00:18:57;;;;;;;;;;;;;;;;;;5329068;27;20040;-72
2022/10/31 00:21:23;;;;;;;15.82;8.35;;;;;;;;;;5326823;27;20082;-72
2022/10/31 00:23:48;;;;;;;;;;;;;;;;;;5328581;27;20103;-73
2022/10/31 00:26:13;;;;;;;15.50;9.05;;;;;;;;;;5327097;27;20286;-72
2022/10/31 00:28:38;;;;;;;12.75;7.87;;;;;;;;;;5326616;27;20081;-73
2022/10/31 00:31:03;;;;;;;;;;;;;;;;;;5328775;27;20001;-73
2022/10/31 00:33:29;;;;;;;17.45;9.50;;;;;;;;;;5328916;27;19935;-72
2022/10/31 00:35:54;;;;;;;;;;;;;;;;;;5306263;27;20128;-73
2022/10/31 00:38:19;;;;;;;10.35;8.02;;;;;;;;;;5325436;27;19938;-73
2022/10/31 00:40:44;;;;;;;17.15;9.27;;;;;;;;;;5326762;26;20032;-73
2022/10/31 00:43:09;;;;;;;;;;;;;;;;;;5306041;27;20001;-73
2022/10/31 00:45:34;;;;;;;15.55;8.68;;;;;;;;;;5307500;27;19935;-73
2022/10/31 00:48:00;;;;;;;14.57;8.48;;;;;;;;;;5326688;27;20034;-73
2022/10/31 00:50:25;;;;;;;18.23;10.32;;;;;;;;;;5327119;27;20016;-72
2022/10/31 00:52:50;;;;;;;12.98;9.25;;;;;;;;;;5328172;27;20027;-72
2022/10/31 00:55:15;;;;;;;18.00;9.25;;;;;;;;;;5325990;27;20017;-72
2022/10/31 00:57:40;;;;;;;;;;;;;;;;;;5328264;27;20044;-72
2022/10/31 01:00:06;;;;;;;18.52;11.43;;;;;;;;;;5330296;27;19983;-72
2022/10/31 01:02:31;;;;;;;22.58;12.15;;;;;;;;;;5326818;27;20034;-73
2022/10/31 01:04:56;;;;;;;27.98;13.30;;;;;;;;;;5328048;27;20367;-72
2022/10/31 01:07:21;;;;;;;19.25;13.70;;;;;;;;;;5328272;27;20008;-73
2022/10/31 01:09:47;;;;;;;23.70;13.57;;;;;;;;;;5328132;27;20001;-73
2022/10/31 01:12:12;;;;;;;27.45;15.63;;;;;;;;;;5328583;27;20011;-73
2022/10/31 01:14:37;;;;;;;29.75;15.82;;;;;;;;;;5326890;27;20010;-73
2022/10/31 01:17:02;;;;;;;21.37;16.62;;;;;;;;;;5305954;27;20009;-73
2022/10/31 01:19:27;;;;;;;25.77;16.62;;;;;;;;;;5326113;27;20001;-72
2022/10/31 01:21:56;;;;;;;20.17;15.98;;;;;;;;;;5305404;27;20003;-71
2022/10/31 01:24:21;;;;;;;25.10;16.98;;;;;;;;;;5327705;27;20019;-73
2022/10/31 01:26:46;;;;;;;;;;;;;;;;;;5328583;27;20341;-72
2022/10/31 01:29:11;;;;;;;17.65;13.95;;;;;;;;;;5325586;27;19928;-73
2022/10/31 01:31:38;;;;;;;18.05;14.52;;;;;;;;;;5325757;27;20011;-72
2022/10/31 01:34:03;;;;;;;21.83;16.15;;;;;;;;;;5325288;27;20001;-72
2022/10/31 01:36:29;;;;;;;;;;;;;;;;;;5327142;27;20007;-72
2022/10/31 01:38:55;;;;;;;22.73;15.90;;;;;;;;;;5324477;26;19969;-69
2022/10/31 01:41:22;;;;;;;25.58;16.00;;;;;;;;;;5325366;27;20096;-71
2022/10/31 01:43:52;;;;;;;24.75;18.27;;;;;;;;;;5307786;27;20086;-69
2022/10/31 01:46:19;;;;;;;30.67;17.55;;;;;;;;;;5307976;27;20005;-69
2022/10/31 01:48:45;;;;;;;26.00;19.12;;;;;;;;;;5325212;27;20073;-69
2022/10/31 01:51:10;;;;;;;;;;;;;;;;;;5325900;27;20001;-68
2022/10/31 01:53:35;;;;;;;32.40;19.87;;;;;;;;;;5325800;27;19927;-69
2022/10/31 01:56:01;;;;;;;31.35;20.15;;;;;;;;;;5305595;27;19997;-70
2022/10/31 01:58:26;;;;;;;;;;;;;;;;;;5325801;27;20007;-70
2022/10/31 02:00:53;;;;;;;36.17;23.65;;;;;;;;;;5305698;27;20296;-70
2022/10/31 02:03:20;;;;;;;39.58;24.27;;;;;;;;;;5325842;27;20409;-69
2022/10/31 02:05:45;;;;;;;38.10;23.62;;;;;;;;;;5328160;27;20031;-69
2022/10/31 02:08:10;;;;;;;;;;;;;;;;;;5325303;27;20021;-69
2022/10/31 02:10:36;;;;;;;36.05;24.20;;;;;;;;;;5307699;27;19927;-69
2022/10/31 02:13:03;;;;;;;44.17;27.65;;;;;;;;;;5326431;27;20012;-70
2022/10/31 02:15:29;;;;;;;49.15;30.40;;;;;;;;;;5327741;27;20016;-69
2022/10/31 02:17:55;;;;;;;41.50;28.15;;;;;;;;;;5327435;27;20005;-69
2022/10/31 02:20:20;;;;;;;;;;;;;;;;;;5326367;27;20012;-69
2022/10/31 02:22:45;;;;;;;39.53;31.17;;;;;;;;;;5307591;27;19939;-69
2022/10/31 02:25:11;;;;;;;42.50;31.08;;;;;;;;;;5327396;27;20413;-69
2022/10/31 02:27:55;;;;;;;44.35;33.50;;;;;;;;;;5307720;27;20382;-69
2022/10/31 02:30:24;;;;;;;44.30;30.80;;;;;;;;;;5327120;27;20012;-69
2022/10/31 02:33:19;;;;;;;42.83;30.75;;;;;;;;;;5327652;27;20038;-71
2022/10/31 02:35:55;;;;;;;42.50;30.75;;;;;;;;;;5302790;27;20406;-69
2022/10/31 02:38:35;;;;;;;42.38;29.60;;;;;;;;;;5301095;27;20029;-70
2022/10/31 02:41:13;;;;;;;44.42;30.50;;;;;;;;;;5301287;27;20004;-68
2022/10/31 02:43:50;;;;;;;44.13;30.33;;;;;;;;;;5305093;27;20035;-69
2022/10/31 02:46:15;;;;;;;38.63;29.17;;;;;;;;;;5301574;27;19994;-68
2022/10/31 02:48:40;;;;;;;;;;;;;;;;;;5306038;27;20001;-69
2022/10/31 02:51:05;;;;;;;40.22;30.88;;;;;;;;;;5305405;27;19942;-69
2022/10/31 02:53:34;;;;;;;44.40;28.45;;;;;;;;;;5302922;27;20405;-69
2022/10/31 02:56:08;;;;;;;49.30;32.75;;;;;;;;;;5305277;27;20369;-69
2022/10/31 02:58:35;;;;;;;45.45;34.58;;;;;;;;;;5304893;27;20001;-69
2022/10/31 03:01:00;;;;;;;46.30;33.35;;;;;;;;;;5302965;27;20005;-69
2022/10/31 03:03:25;;;;;;;;;;;;;;;;;;5285895;27;20421;-69
2022/10/31 03:05:50;;;;;;;54.38;36.03;;;;;;;;;;5305757;27;19928;-69
2022/10/31 03:08:31;;;;;;;52.10;35.50;;;;;;;;;;5305329;27;20477;-69
2022/10/31 03:11:00;;;;;;;49.92;34.83;;;;;;;;;;5305379;27;20422;-69
2022/10/31 03:13:25;;;;;;;49.00;36.45;;;;;;;;;;5301622;27;20045;-70
2022/10/31 03:15:56;;;;;;;61.40;39.15;;;;;;;;;;5305967;27;20042;-69
2022/10/31 03:18:40;;;;;;;50.45;37.88;;;;;;;;;;5303280;27;19989;-68
2022/10/31 03:21:19;;;;;;;46.85;36.38;;;;;;;;;;5285808;27;20397;-69
2022/10/31 03:23:45;;;;;;;46.10;34.80;;;;;;;;;;5307282;27;20004;-69
2022/10/31 03:26:12;;;;;;;42.22;33.38;;;;;;;;;;5306923;27;20303;-69
2022/10/31 03:28:40;;;;;;;46.67;33.78;;;;;;;;;;5286725;27;20005;-69
2022/10/31 03:31:06;;;;;;;53.13;38.90;;;;;;;;;;5306666;27;20004;-69
2022/10/31 03:33:31;;;;;;;;;;;;;;;;;;5306882;27;20016;-69
2022/10/31 03:35:58;;;;;;;46.30;34.60;;;;;;;;;;5286988;27;19930;-69
2022/10/31 03:38:23;;;;;;;43.42;33.35;;;;;;;;;;5303166;27;20017;-68
2022/10/31 03:40:48;;;;;;;;;;;;;;;;;;5284834;27;20007;-69
2022/10/31 03:43:16;;;;;;;45.67;32.08;;;;;;;;;;5284807;27;20006;-69
2022/10/31 03:45:43;;;;;;;58.28;39.40;;;;;;;;;;5305145;27;20341;-69
2022/10/31 03:48:08;;;;;;;57.65;36.40;;;;;;;;;;5306449;27;20005;-68
2022/10/31 03:50:33;;;;;;;;;;;;;;;;;;5305074;27;20033;-68
2022/10/31 03:53:09;;;;;;;54.95;38.78;;;;;;;;;;5286842;27;19932;-69
2022/10/31 03:55:40;;;;;;;55.35;41.67;;;;;;;;;;5304659;27;20437;-68
2022/10/31 03:58:20;;;;;;;66.25;44.42;;;;;;;;;;5302548;27;20059;-69
2022/10/31 04:00:45;;;;;;;61.50;42.60;;;;;;;;;;5304799;27;20004;-69
2022/10/31 04:03:10;;;;;;;;;;;;;;;;;;5304887;27;20001;-69
2022/10/31 04:05:36;;;;;;;53.97;39.50;;;;;;;;;;5305530;27;19936;-69
2022/10/31 04:08:01;;;;;;;;;;;;;;;;;;5285908;27;20009;-69
2022/10/31 04:10:28;;;;;;;58.35;41.75;;;;;;;;;;5303948;27;19931;-68
2022/10/31 04:12:57;;;;;;;60.40;42.42;;;;;;;;;;5305665;27;20004;-69
2022/10/31 04:15:23;;;;;;;57.42;41.92;;;;;;;;;;5304911;27;20008;-69
2022/10/31 04:17:50;;;;;;;56.88;38.35;;;;;;;;;;5286773;27;20053;-69
2022/10/31 04:20:16;;;;;;;48.20;34.75;;;;;;;;;;5306886;27;20060;-68
2022/10/31 04:22:41;;;;;;;;;;;;;;;;;;5305120;27;20005;-69
2022/10/31 04:25:06;;;;;;;43.10;34.05;;;;;;;;;;5304146;27;19928;-68
2022/10/31 04:27:31;;;;;;;57.92;40.53;;;;;;;;;;5305822;27;20031;-69
2022/10/31 04:29:56;;;;;;;54.35;37.63;;;;;;;;;;5303734;27;20020;-69
2022/10/31 04:32:22;;;;;;;;;;;;;;;;;;5306331;27;20028;-68
2022/10/31 04:34:47;;;;;;;58.55;40.60;;;;;;;;;;5304061;27;20278;-68
2022/10/31 04:37:12;;;;;;;;;;;;;;;;;;5304661;27;20120;-69
2022/10/31 04:39:37;;;;;;;54.30;37.50;;;;;;;;;;5303626;27;19958;-69
2022/10/31 04:42:02;;;;;;;56.55;38.10;;;;;;;;;;5305581;27;20000;-68
2022/10/31 04:44:27;;;;;;;;;;;;;;;;;;5284716;27;20433;-69
2022/10/31 04:46:52;;;;;;;50.20;34.13;;;;;;;;;;5304298;27;19927;-68
2022/10/31 04:49:18;;;;;;;64.43;40.30;;;;;;;;;;5303712;27;20005;-68
2022/10/31 04:51:43;;;;;;;;;;;;;;;;;;5305089;27;20558;-68
2022/10/31 04:54:08;;;;;;;63.55;38.08;;;;;;;;;;5306572;27;19961;-68
2022/10/31 04:56:33;;;;;;;63.90;38.30;;;;;;;;;;5306388;27;20043;-69
2022/10/31 04:58:58;;;;;;;;;;;;;;;;;;5304004;27;20012;-70
2022/10/31 05:01:23;;;;;;;67.97;39.78;;;;;;;;;;5286231;27;19928;-68
2022/10/31 05:03:48;;;;;;;77.90;41.20;;;;;;;;;;5305351;27;20339;-69
2022/10/31 05:06:13;;;;;;;;;;;;;;;;;;5303802;27;20061;-69
2022/10/31 05:08:39;;;;;;;100.40;49.50;;;;;;;;;;5303720;27;19940;-69
2022/10/31 05:11:04;;;;;;;;;;;;;;;;;;5306072;27;20101;-69
2022/10/31 05:13:29;;;;;;;119.15;50.45;;;;;;;;;;5306028;27;19927;-69
2022/10/31 05:15:54;;;;;;;;;;;;;;;;;;5286584;27;20402;-69
2022/10/31 05:18:20;;;;;;;134.35;59.08;;;;;;;;;;5305666;27;19951;-68
2022/10/31 05:20:45;;;;;;;181.73;66.82;;;;;;;;;;5305514;27;20020;-69
2022/10/31 05:23:10;;;;;;;;;;;;;;;;;;5303510;27;20005;-69
2022/10/31 05:25:35;;;;;;;78.10;40.78;;;;;;;;;;5303276;27;19958;-68
2022/10/31 05:28:00;;;;;;;132.57;54.35;;;;;;;;;;5286024;27;20359;-70
2022/10/31 05:30:25;;;;;;;;;;;;;;;;;;5305706;27;20357;-69
2022/10/31 05:32:51;;;;;;;126.43;50.85;;;;;;;;;;5306066;27;19928;-69
2022/10/31 05:35:16;;;;;;;;;;;;;;;;;;5304148;27;20100;-69
2022/10/31 05:37:41;;;;;;;135.98;55.65;;;;;;;;;;5284229;27;19943;-68
2022/10/31 05:40:07;;;;;;;71.40;45.05;;;;;;;;;;5305750;27;20088;-69
2022/10/31 05:42:33;;;;;;;123.13;64.70;;;;;;;;;;5305610;27;20006;-69
2022/10/31 05:44:58;;;;;;;;;;;;;;;;;;5301741;27;20012;-68
2022/10/31 05:47:23;;;;;;;107.80;54.10;;;;;;;;;;5306659;27;19955;-68
2022/10/31 05:49:48;;;;;;;;;;;;;;;;;;5305944;27;20134;-68
2022/10/31 05:52:14;;;;;;;109.00;54.40;;;;;;;;;;5306092;27;19934;-68
2022/10/31 05:54:39;;;;;;;109.60;54.58;;;;;;;;;;5306500;27;20013;-68
2022/10/31 05:57:04;;;;;;;;;;;;;;;;;;5303654;27;20089;-69
2022/10/31 05:59:29;;;;;;;108.18;60.20;;;;;;;;;;5284116;27;20337;-69
2022/10/31 06:01:54;;;;;;;109.15;60.75;;;;;;;;;;5304959;27;20053;-69
2022/10/31 06:04:19;;;;;;;83.97;53.28;;;;;;;;;;5305301;27;20005;-70
2022/10/31 06:06:45;;;;;;;;;;;;;;;;;;5305860;27;20001;-69
2022/10/31 06:09:10;;;;;;;89.28;49.63;;;;;;;;;;5305243;27;20275;-68
2022/10/31 06:11:35;;;;;;;92.35;52.53;;;;;;;;;;5302702;27;20082;-69
2022/10/31 06:14:00;;;;;;;;;;;;;;;;;;5305267;27;20330;-69
2022/10/31 06:16:25;;;;;;;87.35;49.53;;;;;;;;;;5304694;27;19928;-68
2022/10/31 06:18:50;;;;;;;;;;;;;;;;;;5302954;27;20463;-68
2022/10/31 06:21:15;;;;;;;126.15;59.72;;;;;;;;;;5303117;27;19927;-69
2022/10/31 06:23:41;;;;;;;;;;;;;;;;;;5303607;27;20134;-69
2022/10/31 06:26:06;;;;;;;107.45;55.55;;;;;;;;;;5304741;27;19935;-69
2022/10/31 06:28:31;;;;;;;;;;;;;;;;;;5305127;27;20169;-69
2022/10/31 06:30:56;;;;;;;176.85;65.57;;;;;;;;;;5305121;27;19955;-69
2022/10/31 06:33:21;;;;;;;156.63;62.45;;;;;;;;;;5303236;27;20009;-68
2022/10/31 06:35:46;;;;;;;;;;;;;;;;;;5305165;27;20375;-69
2022/10/31 06:38:11;;;;;;;120.13;51.17;;;;;;;;;;5303693;27;19939;-69
2022/10/31 06:40:37;;;;;;;;;;;;;;;;;;5285535;27;19999;-69
2022/10/31 06:43:02;;;;;;;90.47;45.72;;;;;;;;;;5302545;27;19962;-68
2022/10/31 06:45:27;;;;;;;;;;;;;;;;;;5303990;27;20001;-69
2022/10/31 06:47:53;;;;;;;174.15;57.10;;;;;;;;;;5302827;27;19939;-69
2022/10/31 06:50:18;;;;;;;;;;;;;;;;;;5305281;27;20097;-69
2022/10/31 06:52:49;;;;;;;216.02;56.97;;;;;;;;;;5303148;27;19948;-69
2022/10/31 06:55:14;;;;;;;185.90;51.92;;;;;;;;;;5305896;27;20019;-68
2022/10/31 06:57:39;;;;;;;;;;;;;;;;;;5305557;27;20052;-68
2022/10/31 07:00:04;;;;;;;157.50;50.55;;;;;;;;;;5304349;27;19955;-68
2022/10/31 07:02:30;;;;;;;239.77;53.20;;;;;;;;;;5306927;27;20042;-67
2022/10/31 07:04:55;;;;;;;219.00;52.80;;;;;;;;;;5304484;27;20012;-68
2022/10/31 07:07:21;;;;;;;;;;;;;;;;;;5306576;27;20005;-68
2022/10/31 07:09:46;;;;;;;245.43;56.03;;;;;;;;;;5305649;27;19924;-68
2022/10/31 07:12:11;;;;;;;;;;;;;;;;;;5306131;27;20016;-69
2022/10/31 07:14:36;;;;;;;185.15;57.08;;;;;;;;;;5305000;27;19924;-69
2022/10/31 07:17:02;;;;;;;;;;;;;;;;;;5305101;27;20179;-68
2022/10/31 07:19:27;;;;;;;169.48;55.65;;;;;;;;;;5305431;27;19935;-68
2022/10/31 07:21:52;;;;;;;140.68;50.08;;;;;;;;;;5305763;27;20048;-68
2022/10/31 07:24:17;;;;;;;;;;;;;;;;;;5305933;27;20059;-68
2022/10/31 07:26:42;;;;;;;338.00;73.28;;;;;;;;;;5305359;27;19944;-69
2022/10/31 07:29:07;;;;;;;140.45;59.45;;;;;;;;;;5304733;27;20034;-68
2022/10/31 07:31:33;;;;;;;;;;;;;;;;;;5306570;27;20011;-68
2022/10/31 07:33:58;;;;;;;155.77;55.53;;;;;;;;;;5304483;27;19944;-69
2022/10/31 07:36:23;;;;;;;;;;;;;;;;;;5304151;27;20487;-73
2022/10/31 07:38:49;;;;;;;187.27;62.05;;;;;;;;;;5285356;27;19928;-69
2022/10/31 07:41:14;;;;;;;;;;;;;;;;;;5303727;27;20039;-68
2022/10/31 07:43:39;;;;;;;217.10;58.87;;;;;;;;;;5303640;27;19971;-69
2022/10/31 07:46:04;;;;;;;139.55;56.25;;;;;;;;;;5303430;27;20000;-69
2022/10/31 07:48:29;;;;;;;;;;;;;;;;;;5304681;27;20045;-69
2022/10/31 07:50:55;;;;;;;144.02;56.85;;;;;;;;;;5303371;27;20296;-68
2022/10/31 07:53:20;;;;;;;83.87;52.53;;;;;;;;;;5303873;27;20001;-69
2022/10/31 07:55:45;;;;;;;;;;;;;;;;;;5303907;27;20315;-70
2022/10/31 07:58:11;;;;;;;107.68;55.47;;;;;;;;;;5306786;27;19928;-69
2022/10/31 08:00:37;;;;;;;277.40;80.75;;;;;;;;;;5306195;27;20046;-68
2022/10/31 08:03:02;;;;;;;;;;;;;;;;;;5306909;27;20001;-69
2022/10/31 08:05:28;;;;;;;239.98;71.40;;;;;;;;;;5286377;27;19927;-69
2022/10/31 08:07:53;;;;;;;;;;;;;;;;;;5306007;27;20093;-69
2022/10/31 08:10:19;;;;;;;153.90;59.03;;;;;;;;;;5304520;27;19927;-69
2022/10/31 08:12:44;;;;;;;;;;;;;;;;;;5305718;27;20121;-69
2022/10/31 08:15:09;;;;;;;131.12;58.38;;;;;;;;;;5283589;27;19929;-68
2022/10/31 08:17:34;;;;;;;;;;;;;;;;;;5306012;27;20143;-68
2022/10/31 08:19:59;;;;;;;152.10;63.75;;;;;;;;;;5304779;27;19927;-69
2022/10/31 08:22:24;;;;;;;153.07;59.60;;;;;;;;;;5285885;27;20463;-69
2022/10/31 08:24:49;;;;;;;;;;;;;;;;;;5303767;27;20019;-69
2022/10/31 08:27:15;;;;;;;191.82;67.28;;;;;;;;;;5283810;27;20000;-69
2022/10/31 08:29:40;;;;;;;97.75;54.45;;;;;;;;;;5285348;27;20012;-70
2022/10/31 08:32:05;;;;;;;102.12;56.70;;;;;;;;;;5303695;27;20001;-69
2022/10/31 08:34:30;;;;;;;90.90;51.03;;;;;;;;;;5306323;27;20277;-68
2022/10/31 08:36:55;;;;;;;;;;;;;;;;;;5283827;27;20097;-69
2022/10/31 08:39:20;;;;;;;75.65;48.10;;;;;;;;;;5302880;27;20021;-69
2022/10/31 08:41:46;;;;;;;;;;;;;;;;;;5304385;27;20424;-68
2022/10/31 08:44:11;;;;;;;80.00;49.20;;;;;;;;;;5304935;27;19932;-68
2022/10/31 08:46:36;;;;;;;79.78;48.92;;;;;;;;;;5304556;27;20013;-69
2022/10/31 08:49:01;;;;;;;74.75;48.67;;;;;;;;;;5304201;27;20203;-68
2022/10/31 08:51:26;;;;;;;87.40;46.45;;;;;;;;;;5306079;27;20007;-69
2022/10/31 08:53:51;;;;;;;74.05;47.95;;;;;;;;;;5305626;27;20315;-69
2022/10/31 08:56:17;;;;;;;;;;;;;;;;;;5306090;27;20008;-68
2022/10/31 08:58:42;;;;;;;62.62;44.97;;;;;;;;;;5305302;27;19938;-69
2022/10/31 09:01:07;;;;;;;77.65;47.80;;;;;;;;;;5305417;27;20005;-69
2022/10/31 09:03:32;;;;;;;67.12;43.72;;;;;;;;;;5305712;27;20011;-69
2022/10/31 09:05:57;;;;;;;;;;;;;;;;;;5284072;27;20001;-69
2022/10/31 09:08:23;;;;;;;62.28;42.10;;;;;;;;;;5303881;27;20274;-69
2022/10/31 09:10:48;;;;;;;66.72;45.30;;;;;;;;;;5303238;27;20039;-69
2022/10/31 09:13:15;;;;;;;73.37;43.30;;;;;;;;;;5305664;27;20029;-70
2022/10/31 09:15:42;;;;;;;58.08;40.72;;;;;;;;;;5305797;27;20057;-68
2022/10/31 09:18:07;;;;;;;61.15;42.15;;;;;;;;;;5305691;27;20052;-69
2022/10/31 09:20:33;;;;;;;;;;;;;;;;;;5302971;27;19997;-69
2022/10/31 09:22:59;;;;;;;60.75;35.50;;;;;;;;;;5305948;27;19980;-69
2022/10/31 09:25:24;;;;;;;54.75;39.08;;;;;;;;;;5303634;27;20138;-69
2022/10/31 09:27:49;;;;;;;46.45;34.13;;;;;;;;;;5304186;27;20024;-69
2022/10/31 09:30:14;;;;;;;50.30;35.10;;;;;;;;;;5305895;27;20039;-70
2022/10/31 09:32:39;;;;;;;53.28;34.67;;;;;;;;;;5306157;27;20750;-69
2022/10/31 09:35:05;;;;;;;54.20;33.75;;;;;;;;;;5304376;27;20046;-69
2022/10/31 09:37:30;;;;;;;53.55;33.92;;;;;;;;;;5303095;27;20083;-69
2022/10/31 09:39:55;;;;;;;51.22;32.80;;;;;;;;;;5302806;27;20383;-69
2022/10/31 09:42:39;;;;;;;45.75;32.55;;;;;;;;;;5306160;27;20428;-69
2022/10/31 09:45:10;;;;;;;49.55;31.52;;;;;;;;;;5283401;27;20036;-69
2022/10/31 09:47:38;;;;;;;48.22;31.08;;;;;;;;;;5304193;27;20304;-69
2022/10/31 09:50:03;;;;;;;45.05;31.23;;;;;;;;;;5285805;27;20001;-69
2022/10/31 09:52:33;;;;;;;40.67;30.20;;;;;;;;;;5305260;27;20016;-68
2022/10/31 09:54:58;;;;;;;45.15;31.12;;;;;;;;;;5304885;27;20027;-69
2022/10/31 09:57:36;;;;;;;42.70;29.25;;;;;;;;;;5304006;27;20462;-69
2022/10/31 10:00:05;;;;;;;40.67;29.42;;;;;;;;;;5302959;27;20402;-69
2022/10/31 10:02:36;;;;;;;46.22;28.08;;;;;;;;;;5305480;27;20001;-68
2022/10/31 10:05:04;;;;;;;43.20;29.10;;;;;;;;;;5285847;27;20015;-69
2022/10/31 10:07:44;;;;;;;42.67;28.38;;;;;;;;;;5302884;27;20014;-69
2022/10/31 10:10:14;;;;;;;40.67;28.20;;;;;;;;;;5302840;27;20352;-68
2022/10/31 10:12:42;;;;;;;38.70;27.87;;;;;;;;;;5305051;27;20077;-68
2022/10/31 10:15:26;;;;;;;39.10;27.33;;;;;;;;;;5305469;27;20034;-68
2022/10/31 10:17:51;;;;;;;42.42;28.55;;;;;;;;;;5304398;27;20015;-70
2022/10/31 10:20:23;;;;;;;44.08;27.52;;;;;;;;;;5304999;27;20319;-70
2022/10/31 10:23:06;;;;;;;43.15;26.60;;;;;;;;;;5301135;27;20115;-70
2022/10/31 10:25:39;;;;;;;39.38;25.50;;;;;;;;;;5303691;27;20006;-69
2022/10/31 10:28:23;;;;;;;39.65;27.20;;;;;;;;;;5306203;27;20024;-70
2022/10/31 10:31:11;;;;;;;39.97;25.67;;;;;;;;;;5303946;27;20005;-69
2022/10/31 10:33:39;;;;;;;35.25;25.35;;;;;;;;;;5294371;27;20005;-69
2022/10/31 10:36:06;;;;;;;31.95;22.00;;;;;;;;;;5306524;27;20073;-69
2022/10/31 10:38:42;;;;;;;33.90;24.37;;;;;;;;;;5284388;27;20025;-69
2022/10/31 10:41:15;;;;;;;33.90;24.12;;;;;;;;;;5305683;27;20017;-69
2022/10/31 10:43:40;;;;;;;30.27;22.55;;;;;;;;;;5304243;27;20046;-69
2022/10/31 10:48:59;;;;;;;31.37;23.65;;;;;;;;;;5305740;27;20001;-69
2022/10/31 10:51:37;;;;;;;31.05;24.58;;;;;;;;;;5302790;27;20028;-69
2022/10/31 10:54:37;;;;;;;41.90;23.23;;;;;;;;;;5304996;27;20012;-68
2022/10/31 10:57:02;;;;;;;36.60;25.42;;;;;;;;;;5285749;27;20042;-68
2022/10/31 10:59:27;;;;;;;36.53;22.77;;;;;;;;;;5305148;27;20010;-68
2022/10/31 11:01:52;;;;;;;38.15;25.17;;;;;;;;;;5306126;27;20093;-68
2022/10/31 11:04:24;;;;;;;34.80;23.75;;;;;;;;;;5300984;27;20016;-69
2022/10/31 11:06:59;;;;;;;34.65;24.12;;;;;;;;;;5303307;27;20009;-68
2022/10/31 11:09:25;;;;;;;36.05;22.17;;;;;;;;;;5304443;27;20045;-69
2022/10/31 11:11:50;;;;;;;37.50;25.85;;;;;;;;;;5283562;27;20332;-69
2022/10/31 11:14:16;;;;;;;33.65;23.08;;;;;;;;;;5305518;27;20000;-68
2022/10/31 11:16:47;;;;;;;35.05;24.67;;;;;;;;;;5302647;27;20039;-68
2022/10/31 11:19:14;;;;;;;30.20;21.60;;;;;;;;;;5302706;27;20016;-68
2022/10/31 11:21:39;;;;;;;30.35;20.25;;;;;;;;;;5304079;27;20012;-68
2022/10/31 11:24:11;;;;;;;34.28;23.17;;;;;;;;;;5283506;27;20311;-69
2022/10/31 11:26:37;;;;;;;28.10;22.58;;;;;;;;;;5302943;27;20015;-69
2022/10/31 11:29:03;;;;;;;35.30;21.70;;;;;;;;;;5303438;27;20013;-68
2022/10/31 11:31:29;;;;;;;37.92;24.25;;;;;;;;;;5301751;27;20007;-69
2022/10/31 11:33:59;;;;;;;40.38;24.00;;;;;;;;;;5301933;27;20055;-68
2022/10/31 11:36:25;;;;;;;28.40;20.62;;;;;;;;;;5302658;27;20020;-69
2022/10/31 11:38:51;;;;;;;41.30;24.33;;;;;;;;;;5303912;27;20356;-69
2022/10/31 11:41:25;;;;;;;31.50;23.45;;;;;;;;;;5305627;27;20005;-69
2022/10/31 11:43:51;;;;;;;36.20;25.17;;;;;;;;;;5303972;27;20008;-69
2022/10/31 11:46:23;;;;;;;34.58;23.75;;;;;;;;;;5303653;27;20016;-70
2022/10/31 11:48:49;;;;;;;34.55;24.55;;;;;;;;;;5306159;27;20013;-70
2022/10/31 11:51:20;;;;;;;40.60;25.08;;;;;;;;;;5303849;27;20327;-69
2022/10/31 11:53:50;;;;;;;36.42;25.27;;;;;;;;;;5305269;27;20361;-69
2022/10/31 11:56:16;;;;;;;34.17;23.60;;;;;;;;;;5303612;27;20023;-69
2022/10/31 11:58:42;;;;;;;33.47;24.80;;;;;;;;;;5303218;27;20388;-69
2022/10/31 12:01:21;;;;;;;36.78;23.85;;;;;;;;;;5305062;27;20001;-69
2022/10/31 12:03:59;;;;;;;30.25;22.23;;;;;;;;;;5303177;27;20000;-69
2022/10/31 12:06:28;;;;;;;31.65;24.23;;;;;;;;;;5286342;27;20001;-69
2022/10/31 12:08:53;;;;;;;29.98;23.12;;;;;;;;;;5306121;27;20005;-69
2022/10/31 12:11:37;;;;;;;34.20;21.77;;;;;;;;;;5306091;27;19997;-69
2022/10/31 12:14:11;;;;;;;30.40;22.52;;;;;;;;;;5304151;27;20011;-69
2022/10/31 12:16:37;;;;;;;30.25;20.98;;;;;;;;;;5304308;27;20036;-68
2022/10/31 12:19:11;;;;;;;32.88;23.05;;;;;;;;;;5303557;27;20002;-69
2022/10/31 12:21:42;;;;;;;30.42;22.33;;;;;;;;;;5284059;27;20023;-69
2022/10/31 12:24:27;;;;;;;28.27;22.00;;;;;;;;;;5305805;27;20011;-69
2022/10/31 12:27:10;;;;;;;32.58;22.00;;;;;;;;;;5303574;27;20019;-70
2022/10/31 12:29:43;;;;;;;31.40;21.62;;;;;;;;;;5306534;27;20413;-69
2022/10/31 12:32:17;;;;;;;28.55;21.73;;;;;;;;;;5304864;27;19993;-69
2022/10/31 12:34:51;;;;;;;28.85;21.10;;;;;;;;;;5305372;27;20001;-70
2022/10/31 12:37:19;;;;;;;32.00;21.10;;;;;;;;;;5306418;27;20363;-69
2022/10/31 12:40:03;;;;;;;35.75;24.52;;;;;;;;;;5303222;27;20035;-69
2022/10/31 12:42:46;;;;;;;33.90;23.42;;;;;;;;;;5303076;27;20018;-69
2022/10/31 12:45:22;;;;;;;36.78;25.55;;;;;;;;;;5302661;27;20061;-69
2022/10/31 12:47:58;;;;;;;43.15;27.95;;;;;;;;;;5305264;27;20028;-69
2022/10/31 12:50:38;;;;;;;41.15;26.48;;;;;;;;;;5284399;27;20004;-69
2022/10/31 12:53:22;;;;;;;39.15;26.90;;;;;;;;;;5304436;27;20009;-68
2022/10/31 12:56:05;;;;;;;36.13;26.37;;;;;;;;;;5301809;27;20028;-70
2022/10/31 12:58:33;;;;;;;35.60;27.20;;;;;;;;;;5281542;27;20439;-69
2022/10/31 13:01:10;;;;;;;40.50;28.92;;;;;;;;;;5303203;27;20004;-70
2022/10/31 13:03:42;;;;;;;44.85;29.92;;;;;;;;;;5305414;27;20009;-68
2022/10/31 13:06:09;;;;;;;44.22;29.20;;;;;;;;;;5306385;27;19993;-69
2022/10/31 13:08:53;;;;;;;41.97;27.70;;;;;;;;;;5306204;27;20039;-70
2022/10/31 13:11:21;;;;;;;42.00;28.38;;;;;;;;;;5305648;27;20005;-70
2022/10/31 13:13:49;;;;;;;42.67;28.38;;;;;;;;;;5304295;27;20005;-70
2022/10/31 13:16:16;;;;;;;39.88;26.98;;;;;;;;;;5306076;27;20029;-69
2022/10/31 13:19:08;;;;;;;46.25;29.10;;;;;;;;;;5304977;27;20042;-70
2022/10/31 13:21:39;;;;;;;44.35;30.00;;;;;;;;;;5298738;27;20000;-69
2022/10/31 13:24:10;;;;;;;41.90;28.25;;;;;;;;;;5302211;27;20028;-69
2022/10/31 13:26:42;;;;;;;41.22;28.98;;;;;;;;;;5303913;27;19997;-70
2022/10/31 13:29:25;;;;;;;51.28;32.70;;;;;;;;;;5306059;27;20007;-70
2022/10/31 13:31:51;;;;;;;44.25;31.20;;;;;;;;;;5303040;27;20401;-70
2022/10/31 13:34:25;;;;;;;56.03;34.65;;;;;;;;;;5283184;27;20005;-69
2022/10/31 13:36:56;;;;;;;52.53;34.38;;;;;;;;;;5303089;27;20038;-69
2022/10/31 13:39:32;;;;;;;53.28;34.95;;;;;;;;;;5303197;27;20021;-69
2022/10/31 13:42:10;;;;;;;58.87;35.40;;;;;;;;;;5306143;27;20008;-69
2022/10/31 13:44:39;;;;;;;52.72;34.53;;;;;;;;;;5303650;27;20030;-69
2022/10/31 13:47:24;;;;;;;55.28;34.03;;;;;;;;;;5305348;27;20261;-68
2022/10/31 13:49:49;;;;;;;58.95;34.30;;;;;;;;;;5303373;27;19988;-68
2022/10/31 13:52:16;;;;;;;56.40;36.40;;;;;;;;;;5283625;27;20375;-69
2022/10/31 13:54:45;;;;;;;64.53;38.63;;;;;;;;;;5305551;27;20011;-69
2022/10/31 13:57:16;;;;;;;48.65;35.45;;;;;;;;;;5303560;27;20383;-69
2022/10/31 13:59:46;;;;;;;51.67;35.22;;;;;;;;;;5305077;27;20048;-68
2022/10/31 14:02:20;;;;;;;55.45;35.20;;;;;;;;;;5304201;27;20334;-69
2022/10/31 14:04:48;;;;;;;55.33;34.60;;;;;;;;;;5303635;27;20085;-69
2022/10/31 14:07:17;;;;;;;59.78;33.88;;;;;;;;;;5305233;27;20001;-70
2022/10/31 14:09:52;;;;;;;61.03;36.53;;;;;;;;;;5303894;27;20033;-70
2022/10/31 14:12:26;;;;;;;52.78;35.13;;;;;;;;;;5305410;27;20023;-69
2022/10/31 14:14:53;;;;;;;52.45;36.95;;;;;;;;;;5305132;27;20046;-68
2022/10/31 14:17:27;;;;;;;58.72;37.53;;;;;;;;;;5284046;27;20001;-69
2022/10/31 14:19:56;;;;;;;57.85;37.13;;;;;;;;;;5305189;27;20043;-69
2022/10/31 14:22:23;;;;;;;56.08;34.95;;;;;;;;;;5302890;27;20005;-69
2022/10/31 14:24:48;;;;;;;63.33;40.15;;;;;;;;;;5305172;27;20065;-68
2022/10/31 14:27:19;;;;;;;57.58;37.65;;;;;;;;;;5304330;27;20384;-67
2022/10/31 14:29:44;;;;;;;68.95;40.00;;;;;;;;;;5303023;27;20044;-68
2022/10/31 14:32:14;;;;;;;59.70;37.35;;;;;;;;;;5302951;27;20253;-69
2022/10/31 14:34:41;;;;;;;65.20;37.53;;;;;;;;;;5302763;27;20001;-69
2022/10/31 14:37:19;;;;;;;65.55;40.50;;;;;;;;;;5285591;27;20008;-71
2022/10/31 14:40:02;;;;;;;54.15;37.28;;;;;;;;;;5283305;27;20385;-68
2022/10/31 14:42:42;;;;;;;56.70;37.75;;;;;;;;;;5303424;27;20051;-68
2022/10/31 14:45:17;;;;;;;61.85;39.92;;;;;;;;;;5305134;27;19989;-69
2022/10/31 14:48:01;;;;;;;61.63;37.53;;;;;;;;;;5281046;27;20016;-70